sensor_id;sensor_type;location;lat;lon;timestamp;temperature;humidity
14359;DHT22;7263;49.418;11.064;2024-03-08T00:06:47;0.00;99.90
14359;DHT22;7263;49.418;11.064;2024-03-08T00:11:49;0.10;99.90
14359;DHT22;7263;49.418;11.064;2024-03-08T00:14:21;0.10;99.90
14359;DHT22;7263;49.418;11.064;2024-03-08T00:19:21;0.20;99.90
14359;DHT22;7263;49.418;11.064;2024-03-08T00:21:50;0.10;99.90
14359;DHT22;7263;49.418;11.064;2024-03-08T00:24:26;0.10;99.90
14359;DHT22;7263;49.418;11.064;2024-03-08T00:29:25;0.10;99.90
14359;DHT22;7263;49.418;11.064;2024-03-08T00:39:30;0.00;99.90
14359;DHT22;7263;49.418;11.064;2024-03-08T00:42:03;0.00;99.90
14359;DHT22;7263;49.418;11.064;2024-03-08T00:44:34;-0.10;99.90
14359;DHT22;7263;49.418;11.064;2024-03-08T00:51:56;-0.10;99.90
14359;DHT22;7263;49.418;11.064;2024-03-08T00:54:23;-0.10;99.90
14359;DHT22;7263;49.418;11.064;2024-03-08T00:56:52;0.00;99.90
14359;DHT22;7263;49.418;11.064;2024-03-08T00:59:22;0.00;99.90
14359;DHT22;7263;49.418;11.064;2024-03-08T01:01:51;0.00;99.90
14359;DHT22;7263;49.418;11.064;2024-03-08T01:14:33;0.20;99.90
14359;DHT22;7263;49.418;11.064;2024-03-08T01:17:04;0.30;99.90
14359;DHT22;7263;49.418;11.064;2024-03-08T01:19:31;0.30;99.90
14359;DHT22;7263;49.418;11.064;2024-03-08T01:21:58;0.30;99.90
14359;DHT22;7263;49.418;11.064;2024-03-08T01:24:25;0.30;99.90
14359;DHT22;7263;49.418;11.064;2024-03-08T01:26:57;0.40;99.90
14359;DHT22;7263;49.418;11.064;2024-03-08T01:31:51;0.40;99.90
14359;DHT22;7263;49.418;11.064;2024-03-08T01:34:23;0.30;99.90
14359;DHT22;7263;49.418;11.064;2024-03-08T01:41:49;0.30;99.90
14359;DHT22;7263;49.418;11.064;2024-03-08T01:46:49;0.20;99.90
14359;DHT22;7263;49.418;11.064;2024-03-08T01:49:17;0.20;99.90
14359;DHT22;7263;49.418;11.064;2024-03-08T01:51:49;0.20;99.90
14359;DHT22;7263;49.418;11.064;2024-03-08T01:54:17;0.20;99.90
14359;DHT22;7263;49.418;11.064;2024-03-08T01:56:46;0.20;99.90
14359;DHT22;7263;49.418;11.064;2024-03-08T01:59:16;0.20;99.90
14359;DHT22;7263;49.418;11.064;2024-03-08T02:01:45;0.10;99.90
14359;DHT22;7263;49.418;11.064;2024-03-08T02:04:13;0.20;99.90
14359;DHT22;7263;49.418;11.064;2024-03-08T02:06:46;0.20;99.90
14359;DHT22;7263;49.418;11.064;2024-03-08T02:09:14;0.20;99.90
14359;DHT22;7263;49.418;11.064;2024-03-08T02:11:45;0.20;99.90
14359;DHT22;7263;49.418;11.064;2024-03-08T02:14:20;0.20;99.90
14359;DHT22;7263;49.418;11.064;2024-03-08T02:17:03;0.20;99.90
14359;DHT22;7263;49.418;11.064;2024-03-08T02:22:00;0.10;99.90
14359;DHT22;7263;49.418;11.064;2024-03-08T02:24:29;0.10;99.90
14359;DHT22;7263;49.418;11.064;2024-03-08T02:26:56;0.10;99.90
14359;DHT22;7263;49.418;11.064;2024-03-08T02:29:28;0.00;99.90
14359;DHT22;7263;49.418;11.064;2024-03-08T02:31:58;0.00;99.90
14359;DHT22;7263;49.418;11.064;2024-03-08T02:36:52;-0.10;99.90
14359;DHT22;7263;49.418;11.064;2024-03-08T02:39:26;-0.10;99.90
14359;DHT22;7263;49.418;11.064;2024-03-08T02:46:56;-0.10;99.90
14359;DHT22;7263;49.418;11.064;2024-03-08T02:49:22;0.00;99.90
14359;DHT22;7263;49.418;11.064;2024-03-08T02:54:22;0.00;99.90
14359;DHT22;7263;49.418;11.064;2024-03-08T02:57:01;0.00;99.90
14359;DHT22;7263;49.418;11.064;2024-03-08T02:59:29;0.00;99.90
14359;DHT22;7263;49.418;11.064;2024-03-08T03:02:05;0.00;99.90
14359;DHT22;7263;49.418;11.064;2024-03-08T03:09:27;0.00;99.90
14359;DHT22;7263;49.418;11.064;2024-03-08T03:11:55;0.00;99.90
14359;DHT22;7263;49.418;11.064;2024-03-08T03:21:49;-0.10;99.90
14359;DHT22;7263;49.418;11.064;2024-03-08T03:24:23;-0.10;99.90
14359;DHT22;7263;49.418;11.064;2024-03-08T03:27:02;-0.10;99.90
14359;DHT22;7263;49.418;11.064;2024-03-08T03:29:39;-0.10;99.90
14359;DHT22;7263;49.418;11.064;2024-03-08T03:32:10;-0.10;99.90
14359;DHT22;7263;49.418;11.064;2024-03-08T03:34:41;-0.20;99.90
14359;DHT22;7263;49.418;11.064;2024-03-08T03:37:12;-0.20;99.90
14359;DHT22;7263;49.418;11.064;2024-03-08T03:42:22;-0.30;99.90
14359;DHT22;7263;49.418;11.064;2024-03-08T03:44:52;-0.40;99.90
14359;DHT22;7263;49.418;11.064;2024-03-08T03:47:23;-0.40;99.90
14359;DHT22;7263;49.418;11.064;2024-03-08T03:49:56;-0.40;99.90
14359;DHT22;7263;49.418;11.064;2024-03-08T03:55:00;-0.50;99.90
14359;DHT22;7263;49.418;11.064;2024-03-08T03:57:30;-0.50;99.90
14359;DHT22;7263;49.418;11.064;2024-03-08T04:00:06;-0.50;99.90
14359;DHT22;7263;49.418;11.064;2024-03-08T04:05:08;-0.50;99.90
14359;DHT22;7263;49.418;11.064;2024-03-08T04:10:09;-0.60;99.90
14359;DHT22;7263;49.418;11.064;2024-03-08T04:12:39;-0.50;99.90
14359;DHT22;7263;49.418;11.064;2024-03-08T04:15:07;-0.50;99.90
14359;DHT22;7263;49.418;11.064;2024-03-08T04:17:36;-0.50;99.90
14359;DHT22;7263;49.418;11.064;2024-03-08T04:20:04;-0.40;99.90
14359;DHT22;7263;49.418;11.064;2024-03-08T04:22:38;-0.50;99.90
14359;DHT22;7263;49.418;11.064;2024-03-08T04:25:14;-0.40;99.90
14359;DHT22;7263;49.418;11.064;2024-03-08T04:27:42;-0.40;99.90
14359;DHT22;7263;49.418;11.064;2024-03-08T04:35:11;-0.40;99.90
14359;DHT22;7263;49.418;11.064;2024-03-08T04:40:07;-0.40;99.90
14359;DHT22;7263;49.418;11.064;2024-03-08T04:42:46;-0.40;99.90
14359;DHT22;7263;49.418;11.064;2024-03-08T04:50:11;-0.40;99.90
14359;DHT22;7263;49.418;11.064;2024-03-08T04:55:06;-0.40;99.90
14359;DHT22;7263;49.418;11.064;2024-03-08T05:00:04;-0.30;99.90
14359;DHT22;7263;49.418;11.064;2024-03-08T05:02:36;-0.30;99.90
14359;DHT22;7263;49.418;11.064;2024-03-08T05:07:37;-0.20;99.90
14359;DHT22;7263;49.418;11.064;2024-03-08T05:10:05;-0.20;99.90
14359;DHT22;7263;49.418;11.064;2024-03-08T05:12:32;-0.10;99.90
14359;DHT22;7263;49.418;11.064;2024-03-08T05:15:04;-0.10;99.90
14359;DHT22;7263;49.418;11.064;2024-03-08T05:19:59;-0.10;99.90
14359;DHT22;7263;49.418;11.064;2024-03-08T05:27:23;-0.10;99.90
14359;DHT22;7263;49.418;11.064;2024-03-08T05:29:50;-0.10;99.90
14359;DHT22;7263;49.418;11.064;2024-03-08T05:32:23;-0.10;99.90
14359;DHT22;7263;49.418;11.064;2024-03-08T05:37:25;-0.10;99.90
14359;DHT22;7263;49.418;11.064;2024-03-08T05:42:25;-0.10;99.90
14359;DHT22;7263;49.418;11.064;2024-03-08T05:44:53;-0.10;99.90
14359;DHT22;7263;49.418;11.064;2024-03-08T05:47:24;-0.10;99.90
14359;DHT22;7263;49.418;11.064;2024-03-08T05:54:47;-0.10;99.90
14359;DHT22;7263;49.418;11.064;2024-03-08T05:57:17;-0.10;99.90
14359;DHT22;7263;49.418;11.064;2024-03-08T05:59:47;-0.10;99.90
14359;DHT22;7263;49.418;11.064;2024-03-08T06:04:49;-0.10;99.90
14359;DHT22;7263;49.418;11.064;2024-03-08T06:12:14;-0.10;99.90
14359;DHT22;7263;49.418;11.064;2024-03-08T06:15:06;-0.10;99.90
14359;DHT22;7263;49.418;11.064;2024-03-08T06:17:40;0.00;99.90
14359;DHT22;7263;49.418;11.064;2024-03-08T06:20:09;-0.10;99.90
14359;DHT22;7263;49.418;11.064;2024-03-08T06:22:40;0.10;99.90
14359;DHT22;7263;49.418;11.064;2024-03-08T06:27:46;0.20;99.90
14359;DHT22;7263;49.418;11.064;2024-03-08T06:30:20;0.20;99.90
14359;DHT22;7263;49.418;11.064;2024-03-08T06:35:19;0.20;99.90
14359;DHT22;7263;49.418;11.064;2024-03-08T06:37:49;0.30;99.90
14359;DHT22;7263;49.418;11.064;2024-03-08T06:45:12;0.40;99.90
14359;DHT22;7263;49.418;11.064;2024-03-08T06:47:48;0.50;99.90
14359;DHT22;7263;49.418;11.064;2024-03-08T06:50:15;0.60;99.90
14359;DHT22;7263;49.418;11.064;2024-03-08T06:52:46;0.70;99.90
14359;DHT22;7263;49.418;11.064;2024-03-08T06:55:18;0.80;99.90
14359;DHT22;7263;49.418;11.064;2024-03-08T06:57:45;0.90;99.90
14359;DHT22;7263;49.418;11.064;2024-03-08T07:00:12;1.00;99.90
14359;DHT22;7263;49.418;11.064;2024-03-08T07:02:47;1.10;99.90
14359;DHT22;7263;49.418;11.064;2024-03-08T07:07:59;1.40;99.90
14359;DHT22;7263;49.418;11.064;2024-03-08T07:10:36;1.60;99.90
14359;DHT22;7263;49.418;11.064;2024-03-08T07:13:15;1.80;99.90
14359;DHT22;7263;49.418;11.064;2024-03-08T07:15:44;2.10;99.90
14359;DHT22;7263;49.418;11.064;2024-03-08T07:18:11;2.20;99.90
14359;DHT22;7263;49.418;11.064;2024-03-08T07:20:44;2.40;99.90
14359;DHT22;7263;49.418;11.064;2024-03-08T07:23:19;2.60;99.90
14359;DHT22;7263;49.418;11.064;2024-03-08T07:28:36;2.90;99.90
14359;DHT22;7263;49.418;11.064;2024-03-08T07:31:08;3.20;99.90
14359;DHT22;7263;49.418;11.064;2024-03-08T07:38:46;3.50;99.90
14359;DHT22;7263;49.418;11.064;2024-03-08T07:41:26;3.50;99.90
14359;DHT22;7263;49.418;11.064;2024-03-08T07:48:54;4.00;99.90
14359;DHT22;7263;49.418;11.064;2024-03-08T07:51:23;4.20;99.90
14359;DHT22;7263;49.418;11.064;2024-03-08T07:53:54;4.40;99.90
14359;DHT22;7263;49.418;11.064;2024-03-08T07:58:54;4.40;99.90
14359;DHT22;7263;49.418;11.064;2024-03-08T08:01:24;4.40;99.90
14359;DHT22;7263;49.418;11.064;2024-03-08T08:03:54;4.60;99.90
14359;DHT22;7263;49.418;11.064;2024-03-08T08:06:24;4.70;99.90
14359;DHT22;7263;49.418;11.064;2024-03-08T08:09:01;5.10;99.90
14359;DHT22;7263;49.418;11.064;2024-03-08T08:11:50;5.40;99.90
14359;DHT22;7263;49.418;11.064;2024-03-08T08:14:16;5.50;99.90
14359;DHT22;7263;49.418;11.064;2024-03-08T08:19:21;5.80;99.90
14359;DHT22;7263;49.418;11.064;2024-03-08T08:21:52;6.10;99.90
14359;DHT22;7263;49.418;11.064;2024-03-08T08:24:25;6.10;99.90
14359;DHT22;7263;49.418;11.064;2024-03-08T08:27:03;6.20;99.90
14359;DHT22;7263;49.418;11.064;2024-03-08T08:32:01;6.30;99.90
14359;DHT22;7263;49.418;11.064;2024-03-08T08:39:32;6.40;99.90
14359;DHT22;7263;49.418;11.064;2024-03-08T08:42:05;6.30;99.90
14359;DHT22;7263;49.418;11.064;2024-03-08T08:49:34;6.50;99.90
14359;DHT22;7263;49.418;11.064;2024-03-08T08:52:06;6.70;99.90
14359;DHT22;7263;49.418;11.064;2024-03-08T08:54:35;6.80;99.90
14359;DHT22;7263;49.418;11.064;2024-03-08T09:02:15;7.30;99.90
14359;DHT22;7263;49.418;11.064;2024-03-08T09:07:22;7.30;99.90
14359;DHT22;7263;49.418;11.064;2024-03-08T09:10:06;7.10;99.90
14359;DHT22;7263;49.418;11.064;2024-03-08T09:12:44;7.20;99.90
14359;DHT22;7263;49.418;11.064;2024-03-08T09:15:17;7.40;99.90
14359;DHT22;7263;49.418;11.064;2024-03-08T09:17:49;7.70;99.90
14359;DHT22;7263;49.418;11.064;2024-03-08T09:20:25;7.90;99.90
14359;DHT22;7263;49.418;11.064;2024-03-08T09:22:55;7.80;99.90
14359;DHT22;7263;49.418;11.064;2024-03-08T09:25:30;7.70;99.90
14359;DHT22;7263;49.418;11.064;2024-03-08T09:37:55;7.90;99.90
14359;DHT22;7263;49.418;11.064;2024-03-08T09:42:54;8.20;99.90
14359;DHT22;7263;49.418;11.064;2024-03-08T09:45:35;8.00;99.90
14359;DHT22;7263;49.418;11.064;2024-03-08T09:48:10;8.00;99.90
14359;DHT22;7263;49.418;11.064;2024-03-08T09:55:37;8.20;99.90
14359;DHT22;7263;49.418;11.064;2024-03-08T09:58:12;8.50;99.90
14359;DHT22;7263;49.418;11.064;2024-03-08T10:03:28;8.60;99.90
14359;DHT22;7263;49.418;11.064;2024-03-08T10:05:59;8.70;99.90
14359;DHT22;7263;49.418;11.064;2024-03-08T10:08:32;8.60;99.90
14359;DHT22;7263;49.418;11.064;2024-03-08T10:13:28;8.30;99.90
14359;DHT22;7263;49.418;11.064;2024-03-08T10:21:05;8.60;99.90
14359;DHT22;7263;49.418;11.064;2024-03-08T10:23:41;8.80;99.90
14359;DHT22;7263;49.418;11.064;2024-03-08T10:28:52;8.90;99.90
14359;DHT22;7263;49.418;11.064;2024-03-08T10:33:52;9.00;99.90
14359;DHT22;7263;49.418;11.064;2024-03-08T10:36:20;8.90;99.90
14359;DHT22;7263;49.418;11.064;2024-03-08T10:41:40;8.70;99.90
14359;DHT22;7263;49.418;11.064;2024-03-08T10:44:17;8.70;99.90
14359;DHT22;7263;49.418;11.064;2024-03-08T10:47:07;9.20;99.90
14359;DHT22;7263;49.418;11.064;2024-03-08T10:49:38;9.20;99.90
14359;DHT22;7263;49.418;11.064;2024-03-08T10:52:09;9.40;99.90
14359;DHT22;7263;49.418;11.064;2024-03-08T10:54:52;9.60;99.90
14359;DHT22;7263;49.418;11.064;2024-03-08T10:57:24;9.70;99.90
14359;DHT22;7263;49.418;11.064;2024-03-08T10:59:55;9.60;99.90
14359;DHT22;7263;49.418;11.064;2024-03-08T11:02:37;9.60;99.90
14359;DHT22;7263;49.418;11.064;2024-03-08T11:05:10;9.90;99.90
14359;DHT22;7263;49.418;11.064;2024-03-08T11:07:49;9.80;99.90
14359;DHT22;7263;49.418;11.064;2024-03-08T11:10:19;9.80;99.90
14359;DHT22;7263;49.418;11.064;2024-03-08T11:12:52;9.60;99.90
14359;DHT22;7263;49.418;11.064;2024-03-08T11:15:21;9.90;99.90
14359;DHT22;7263;49.418;11.064;2024-03-08T11:17:50;10.20;99.90
14359;DHT22;7263;49.418;11.064;2024-03-08T11:20:18;10.20;99.90
14359;DHT22;7263;49.418;11.064;2024-03-08T11:22:50;10.00;99.90
14359;DHT22;7263;49.418;11.064;2024-03-08T11:25:38;10.20;99.90
14359;DHT22;7263;49.418;11.064;2024-03-08T11:28:13;10.10;99.90
14359;DHT22;7263;49.418;11.064;2024-03-08T11:30:46;10.20;99.90
14359;DHT22;7263;49.418;11.064;2024-03-08T11:36:10;10.30;99.90
14359;DHT22;7263;49.418;11.064;2024-03-08T11:38:42;10.40;99.90
14359;DHT22;7263;49.418;11.064;2024-03-08T11:41:12;10.70;99.90
14359;DHT22;7263;49.418;11.064;2024-03-08T11:46:17;10.60;99.90
14359;DHT22;7263;49.418;11.064;2024-03-08T11:48:48;10.70;99.90
14359;DHT22;7263;49.418;11.064;2024-03-08T11:51:15;10.60;99.90
14359;DHT22;7263;49.418;11.064;2024-03-08T11:53:44;10.60;99.90
14359;DHT22;7263;49.418;11.064;2024-03-08T11:56:14;10.70;99.90
14359;DHT22;7263;49.418;11.064;2024-03-08T11:58:41;10.70;99.90
14359;DHT22;7263;49.418;11.064;2024-03-08T12:01:09;10.70;99.90
14359;DHT22;7263;49.418;11.064;2024-03-08T12:03:39;10.70;99.90
14359;DHT22;7263;49.418;11.064;2024-03-08T12:06:07;10.60;99.90
14359;DHT22;7263;49.418;11.064;2024-03-08T12:08:39;10.80;99.90
14359;DHT22;7263;49.418;11.064;2024-03-08T12:11:07;10.60;99.90
14359;DHT22;7263;49.418;11.064;2024-03-08T12:16:12;10.70;99.90
14359;DHT22;7263;49.418;11.064;2024-03-08T12:18:51;10.90;99.90
14359;DHT22;7263;49.418;11.064;2024-03-08T12:21:21;10.60;99.90
14359;DHT22;7263;49.418;11.064;2024-03-08T12:24:03;10.20;99.90
14359;DHT22;7263;49.418;11.064;2024-03-08T12:29:15;10.20;99.90
14359;DHT22;7263;49.418;11.064;2024-03-08T12:34:17;10.20;99.90
14359;DHT22;7263;49.418;11.064;2024-03-08T12:36:45;10.10;99.90
14359;DHT22;7263;49.418;11.064;2024-03-08T12:39:15;10.00;99.90
14359;DHT22;7263;49.418;11.064;2024-03-08T12:41:53;9.90;99.90
14359;DHT22;7263;49.418;11.064;2024-03-08T12:44:20;9.80;99.90
14359;DHT22;7263;49.418;11.064;2024-03-08T12:46:48;9.80;99.90
14359;DHT22;7263;49.418;11.064;2024-03-08T12:49:18;9.80;99.90
14359;DHT22;7263;49.418;11.064;2024-03-08T12:51:50;9.90;99.90
14359;DHT22;7263;49.418;11.064;2024-03-08T12:54:17;10.00;99.90
14359;DHT22;7263;49.418;11.064;2024-03-08T12:59:22;10.00;99.90
14359;DHT22;7263;49.418;11.064;2024-03-08T13:01:50;10.00;99.90
14359;DHT22;7263;49.418;11.064;2024-03-08T13:04:22;10.00;99.90
14359;DHT22;7263;49.418;11.064;2024-03-08T13:11:54;10.00;99.90
14359;DHT22;7263;49.418;11.064;2024-03-08T13:19:31;10.20;99.90
14359;DHT22;7263;49.418;11.064;2024-03-08T13:22:02;10.20;99.90
14359;DHT22;7263;49.418;11.064;2024-03-08T13:24:38;10.20;99.90
14359;DHT22;7263;49.418;11.064;2024-03-08T13:27:06;10.20;99.90
14359;DHT22;7263;49.418;11.064;2024-03-08T13:29:45;10.20;99.90
14359;DHT22;7263;49.418;11.064;2024-03-08T13:32:13;10.20;99.90
14359;DHT22;7263;49.418;11.064;2024-03-08T13:34:42;10.10;99.90
14359;DHT22;7263;49.418;11.064;2024-03-08T13:37:10;10.10;99.90
14359;DHT22;7263;49.418;11.064;2024-03-08T13:39:41;10.20;99.90
14359;DHT22;7263;49.418;11.064;2024-03-08T13:42:12;10.30;99.90
14359;DHT22;7263;49.418;11.064;2024-03-08T13:44:48;10.40;99.90
14359;DHT22;7263;49.418;11.064;2024-03-08T13:49:51;10.40;99.90
14359;DHT22;7263;49.418;11.064;2024-03-08T13:52:21;10.40;99.90
14359;DHT22;7263;49.418;11.064;2024-03-08T13:55:11;10.40;99.90
14359;DHT22;7263;49.418;11.064;2024-03-08T13:57:38;10.40;99.90
14359;DHT22;7263;49.418;11.064;2024-03-08T14:00:15;10.40;99.90
14359;DHT22;7263;49.418;11.064;2024-03-08T14:05:13;10.40;99.90
14359;DHT22;7263;49.418;11.064;2024-03-08T14:07:41;10.50;99.90
14359;DHT22;7263;49.418;11.064;2024-03-08T14:10:11;10.50;99.90
14359;DHT22;7263;49.418;11.064;2024-03-08T14:15:23;10.40;99.90
14359;DHT22;7263;49.418;11.064;2024-03-08T14:17:56;10.40;99.90
14359;DHT22;7263;49.418;11.064;2024-03-08T14:20:33;10.40;99.90
14359;DHT22;7263;49.418;11.064;2024-03-08T14:23:02;10.40;99.90
14359;DHT22;7263;49.418;11.064;2024-03-08T14:25:38;10.50;99.90
14359;DHT22;7263;49.418;11.064;2024-03-08T14:28:05;10.50;99.90
14359;DHT22;7263;49.418;11.064;2024-03-08T14:30:33;10.40;99.90
14359;DHT22;7263;49.418;11.064;2024-03-08T14:33:04;10.50;99.90
14359;DHT22;7263;49.418;11.064;2024-03-08T14:35:35;10.50;99.90
14359;DHT22;7263;49.418;11.064;2024-03-08T14:38:05;10.50;99.90
14359;DHT22;7263;49.418;11.064;2024-03-08T14:40:42;10.50;99.90
14359;DHT22;7263;49.418;11.064;2024-03-08T14:43:12;10.40;99.90
14359;DHT22;7263;49.418;11.064;2024-03-08T14:45:42;10.40;99.90
14359;DHT22;7263;49.418;11.064;2024-03-08T14:48:13;10.40;99.90
14359;DHT22;7263;49.418;11.064;2024-03-08T14:50:43;10.40;99.90
14359;DHT22;7263;49.418;11.064;2024-03-08T14:53:10;10.50;99.90
14359;DHT22;7263;49.418;11.064;2024-03-08T14:55:41;10.60;99.90
14359;DHT22;7263;49.418;11.064;2024-03-08T14:58:12;10.60;99.90
14359;DHT22;7263;49.418;11.064;2024-03-08T15:03:07;10.50;99.90
14359;DHT22;7263;49.418;11.064;2024-03-08T15:05:38;10.50;99.90
14359;DHT22;7263;49.418;11.064;2024-03-08T15:08:18;10.50;99.90
14359;DHT22;7263;49.418;11.064;2024-03-08T15:13:22;10.50;99.90
14359;DHT22;7263;49.418;11.064;2024-03-08T15:15:59;10.50;99.90
14359;DHT22;7263;49.418;11.064;2024-03-08T15:20:59;10.40;99.90
14359;DHT22;7263;49.418;11.064;2024-03-08T15:23:33;10.40;99.90
14359;DHT22;7263;49.418;11.064;2024-03-08T15:26:04;10.30;99.90
14359;DHT22;7263;49.418;11.064;2024-03-08T15:33:48;10.20;99.90
14359;DHT22;7263;49.418;11.064;2024-03-08T15:36:17;10.30;99.90
14359;DHT22;7263;49.418;11.064;2024-03-08T15:38:47;10.30;99.90
14359;DHT22;7263;49.418;11.064;2024-03-08T15:41:28;10.20;99.90
14359;DHT22;7263;49.418;11.064;2024-03-08T15:43:58;10.20;99.90
14359;DHT22;7263;49.418;11.064;2024-03-08T15:54:00;9.90;99.90
14359;DHT22;7263;49.418;11.064;2024-03-08T16:11:26;9.60;99.90
14359;DHT22;7263;49.418;11.064;2024-03-08T16:29:05;9.30;99.90
14359;DHT22;7263;49.418;11.064;2024-03-08T16:56:31;8.80;99.90
14359;DHT22;7263;49.418;11.064;2024-03-08T17:21:52;8.10;99.90
14359;DHT22;7263;49.418;11.064;2024-03-08T17:24:30;8.10;99.90
14359;DHT22;7263;49.418;11.064;2024-03-08T17:27:03;7.90;99.90
14359;DHT22;7263;49.418;11.064;2024-03-08T17:29:36;7.90;99.90
14359;DHT22;7263;49.418;11.064;2024-03-08T17:37:01;7.70;99.90
14359;DHT22;7263;49.418;11.064;2024-03-08T17:39:30;7.60;99.90
14359;DHT22;7263;49.418;11.064;2024-03-08T17:42:02;7.50;99.90
14359;DHT22;7263;49.418;11.064;2024-03-08T17:44:29;7.40;99.90
14359;DHT22;7263;49.418;11.064;2024-03-08T17:46:58;7.30;99.90
14359;DHT22;7263;49.418;11.064;2024-03-08T17:49:24;7.30;99.90
14359;DHT22;7263;49.418;11.064;2024-03-08T17:51:51;7.20;99.90
14359;DHT22;7263;49.418;11.064;2024-03-08T17:56:51;7.10;99.90
14359;DHT22;7263;49.418;11.064;2024-03-08T17:59:31;7.00;99.90
14359;DHT22;7263;49.418;11.064;2024-03-08T18:02:09;6.90;99.90
14359;DHT22;7263;49.418;11.064;2024-03-08T18:04:38;6.90;99.90
14359;DHT22;7263;49.418;11.064;2024-03-08T18:09:34;6.80;99.90
14359;DHT22;7263;49.418;11.064;2024-03-08T18:12:18;6.70;99.90
14359;DHT22;7263;49.418;11.064;2024-03-08T18:14:45;6.50;99.90
14359;DHT22;7263;49.418;11.064;2024-03-08T18:17:13;6.50;99.90
14359;DHT22;7263;49.418;11.064;2024-03-08T18:19:44;6.40;99.90
14359;DHT22;7263;49.418;11.064;2024-03-08T18:22:15;6.40;99.90
14359;DHT22;7263;49.418;11.064;2024-03-08T18:24:42;6.30;99.90
14359;DHT22;7263;49.418;11.064;2024-03-08T18:27:16;6.20;99.90
14359;DHT22;7263;49.418;11.064;2024-03-08T18:29:59;6.20;99.90
14359;DHT22;7263;49.418;11.064;2024-03-08T18:32:27;6.20;99.90
14359;DHT22;7263;49.418;11.064;2024-03-08T18:34:53;6.20;99.90
14359;DHT22;7263;49.418;11.064;2024-03-08T18:37:20;6.20;99.90
14359;DHT22;7263;49.418;11.064;2024-03-08T18:39:50;6.20;99.90
14359;DHT22;7263;49.418;11.064;2024-03-08T18:42:17;6.10;99.90
14359;DHT22;7263;49.418;11.064;2024-03-08T18:49:55;6.00;99.90
14359;DHT22;7263;49.418;11.064;2024-03-08T18:52:26;5.90;99.90
14359;DHT22;7263;49.418;11.064;2024-03-08T18:55:00;5.80;99.90
14359;DHT22;7263;49.418;11.064;2024-03-08T18:57:26;5.70;99.90
14359;DHT22;7263;49.418;11.064;2024-03-08T18:59:54;5.60;99.90
14359;DHT22;7263;49.418;11.064;2024-03-08T19:02:21;5.60;99.90
14359;DHT22;7263;49.418;11.064;2024-03-08T19:04:49;5.50;99.90
14359;DHT22;7263;49.418;11.064;2024-03-08T19:07:23;5.40;99.90
14359;DHT22;7263;49.418;11.064;2024-03-08T19:09:54;5.40;99.90
14359;DHT22;7263;49.418;11.064;2024-03-08T19:12:24;5.40;99.90
14359;DHT22;7263;49.418;11.064;2024-03-08T19:19:55;5.20;99.90
14359;DHT22;7263;49.418;11.064;2024-03-08T19:22:22;5.20;99.90
14359;DHT22;7263;49.418;11.064;2024-03-08T19:24:49;5.10;99.90
14359;DHT22;7263;49.418;11.064;2024-03-08T19:27:16;5.00;99.90
14359;DHT22;7263;49.418;11.064;2024-03-08T19:29:43;5.00;99.90
14359;DHT22;7263;49.418;11.064;2024-03-08T19:32:18;4.90;99.90
14359;DHT22;7263;49.418;11.064;2024-03-08T19:37:22;4.80;99.90
14359;DHT22;7263;49.418;11.064;2024-03-08T19:39:51;4.80;99.90
14359;DHT22;7263;49.418;11.064;2024-03-08T19:42:27;4.80;99.90
14359;DHT22;7263;49.418;11.064;2024-03-08T19:44:57;4.80;99.90
14359;DHT22;7263;49.418;11.064;2024-03-08T19:47:24;4.70;99.90
14359;DHT22;7263;49.418;11.064;2024-03-08T19:49:54;4.60;99.90
14359;DHT22;7263;49.418;11.064;2024-03-08T19:52:25;4.60;99.90
14359;DHT22;7263;49.418;11.064;2024-03-08T19:54:52;4.50;99.90
14359;DHT22;7263;49.418;11.064;2024-03-08T19:57:22;4.40;99.90
14359;DHT22;7263;49.418;11.064;2024-03-08T20:02:23;4.40;99.90
14359;DHT22;7263;49.418;11.064;2024-03-08T20:07:21;4.40;99.90
14359;DHT22;7263;49.418;11.064;2024-03-08T20:09:49;4.40;99.90
14359;DHT22;7263;49.418;11.064;2024-03-08T20:12:16;4.40;99.90
14359;DHT22;7263;49.418;11.064;2024-03-08T20:14:43;4.30;99.90
14359;DHT22;7263;49.418;11.064;2024-03-08T20:19:50;4.20;99.90
14359;DHT22;7263;49.418;11.064;2024-03-08T20:24:48;4.10;99.90
14359;DHT22;7263;49.418;11.064;2024-03-08T20:29:43;4.10;99.90
14359;DHT22;7263;49.418;11.064;2024-03-08T20:32:12;4.10;99.90
14359;DHT22;7263;49.418;11.064;2024-03-08T20:34:39;4.00;99.90
14359;DHT22;7263;49.418;11.064;2024-03-08T20:39:38;3.90;99.90
14359;DHT22;7263;49.418;11.064;2024-03-08T20:42:06;3.90;99.90
14359;DHT22;7263;49.418;11.064;2024-03-08T20:44:38;3.80;99.90
14359;DHT22;7263;49.418;11.064;2024-03-08T20:52:04;3.70;99.90
14359;DHT22;7263;49.418;11.064;2024-03-08T20:54:33;3.60;99.90
14359;DHT22;7263;49.418;11.064;2024-03-08T20:57:06;3.60;99.90
14359;DHT22;7263;49.418;11.064;2024-03-08T20:59:34;3.50;99.90
14359;DHT22;7263;49.418;11.064;2024-03-08T21:07:15;3.40;99.90
14359;DHT22;7263;49.418;11.064;2024-03-08T21:12:16;3.40;99.90
14359;DHT22;7263;49.418;11.064;2024-03-08T21:14:54;3.30;99.90
14359;DHT22;7263;49.418;11.064;2024-03-08T21:19:52;3.30;99.90
14359;DHT22;7263;49.418;11.064;2024-03-08T21:22:27;3.20;99.90
14359;DHT22;7263;49.418;11.064;2024-03-08T21:27:24;3.10;99.90
14359;DHT22;7263;49.418;11.064;2024-03-08T21:34:50;2.90;99.90
14359;DHT22;7263;49.418;11.064;2024-03-08T21:37:20;2.80;99.90
14359;DHT22;7263;49.418;11.064;2024-03-08T21:39:48;2.80;99.90
14359;DHT22;7263;49.418;11.064;2024-03-08T21:42:21;2.80;99.90
14359;DHT22;7263;49.418;11.064;2024-03-08T21:44:58;2.70;99.90
14359;DHT22;7263;49.418;11.064;2024-03-08T21:47:32;2.70;99.90
14359;DHT22;7263;49.418;11.064;2024-03-08T22:02:20;2.80;99.90
14359;DHT22;7263;49.418;11.064;2024-03-08T22:04:47;2.80;99.90
14359;DHT22;7263;49.418;11.064;2024-03-08T22:07:14;2.80;99.90
14359;DHT22;7263;49.418;11.064;2024-03-08T22:09:42;2.80;99.90
14359;DHT22;7263;49.418;11.064;2024-03-08T22:12:08;2.70;99.90
14359;DHT22;7263;49.418;11.064;2024-03-08T22:14:41;2.70;99.90
14359;DHT22;7263;49.418;11.064;2024-03-08T22:17:10;2.60;99.90
14359;DHT22;7263;49.418;11.064;2024-03-08T22:19:48;2.60;99.90
14359;DHT22;7263;49.418;11.064;2024-03-08T22:25:01;2.50;99.90
14359;DHT22;7263;49.418;11.064;2024-03-08T22:27:32;2.40;99.90
14359;DHT22;7263;49.418;11.064;2024-03-08T22:30:02;2.40;99.90
14359;DHT22;7263;49.418;11.064;2024-03-08T22:35:02;2.40;99.90
14359;DHT22;7263;49.418;11.064;2024-03-08T22:40:02;2.50;99.90
14359;DHT22;7263;49.418;11.064;2024-03-08T22:42:38;2.50;99.90
14359;DHT22;7263;49.418;11.064;2024-03-08T22:45:12;2.40;99.90
14359;DHT22;7263;49.418;11.064;2024-03-08T22:50:13;2.40;99.90
14359;DHT22;7263;49.418;11.064;2024-03-08T22:52:55;2.40;99.90
14359;DHT22;7263;49.418;11.064;2024-03-08T22:55:32;2.30;99.90
14359;DHT22;7263;49.418;11.064;2024-03-08T23:06:01;2.30;99.90
14359;DHT22;7263;49.418;11.064;2024-03-08T23:11:15;2.20;99.90
14359;DHT22;7263;49.418;11.064;2024-03-08T23:16:35;2.10;99.90
14359;DHT22;7263;49.418;11.064;2024-03-08T23:21:30;1.90;99.90
14359;DHT22;7263;49.418;11.064;2024-03-08T23:23:58;1.90;99.90
14359;DHT22;7263;49.418;11.064;2024-03-08T23:26:30;1.90;99.90